ポートオブスペイン の空港の天気 - METARとTAF

ピアルコ国際空港(ポートオブスペイン) ( TTPP / POS ) - トリニダード・トバゴ ポートオブスペイン (トリニダード島)
飛行場実況気象(Metar)
観測時間06/17 15:00 AST (06/17 19:00 UTC)
風向・風速東 6m/s
視程10km以上
天気現象周辺でしゅう雨
少しの雲 雲底高度 430m
全天の4割程度の雲 雲底高度 1070m
気温27℃
湿度89%
気圧1014hPa
METARTTPP 171900Z 10011KT 9999 VCSH FEW014 SCT035 27/25 Q1014 NOSIG RMK VCSH-NE
過去の天気等 Google飛行場航空写真 Wunderground天気予報

過去48時間のMETAR

飛行場予報(TAF)
発表時間: 6/17 12:00 AST (6/17 16:00 UTC)
予報対象時間: 17日14時 AST ~ 18日14時 AST
風向・風速東南東 5m/s
視程8000m
17日22時 AST ~ 17日24時 AST に徐々に
風向・風速静穏
全天の4割程度の雲 雲底高度 460m
全天の4割程度の雲 雲底高度 1070m
18日6時 AST ~ 18日10時 AST に 確率 30% で一時的に
視程3000m
天気現象しゅう雨
少しの積乱雲 雲底高度 300m
全天の8割程度の雲 雲底高度 460m
18日8時 AST ~ 18日10時 AST に徐々に
風向・風速東南東 8m/s
18日12時 AST ~ 18日14時 AST に 確率 30% で一時的に
視程5000m
天気現象しゅう雨
少しの積乱雲 雲底高度 300m
TAF TTPP 171600Z 1718/1818 11010KT 8000 ?RA FEW010 BKN030
BECMG 1802/1804 00000KT SCT015 SCT035
PROB30 TEMPO 1810/1814 3000 SHRA FEW010CB BKN015
BECMG 1812/1814 11015KT
PROB30 TEMPO 1816/1818 11015KTG25KT 5000 SHRA FEW010CB